createdAt,value
2018-11-07T00:01:22.176Z,8.70
2018-11-07T00:03:49.871Z,8.70
2018-11-07T00:06:17.601Z,8.70
2018-11-07T00:08:45.300Z,8.70
2018-11-07T00:11:13.028Z,8.70
2018-11-07T00:13:40.714Z,8.70
2018-11-07T00:16:08.392Z,8.70
2018-11-07T00:18:36.124Z,8.70
2018-11-07T00:21:04.092Z,8.70
2018-11-07T00:23:31.830Z,8.70
2018-11-07T00:25:59.464Z,8.70
2018-11-07T00:28:27.110Z,8.70
2018-11-07T00:30:54.871Z,8.70
2018-11-07T00:33:22.531Z,8.70
2018-11-07T00:35:50.216Z,8.70
2018-11-07T00:38:17.928Z,8.70
2018-11-07T00:40:45.572Z,8.70
2018-11-07T00:43:13.233Z,8.70
2018-11-07T00:45:40.950Z,8.70
2018-11-07T00:48:08.612Z,8.70
2018-11-07T00:50:36.298Z,8.70
2018-11-07T00:53:04.132Z,8.80
2018-11-07T00:55:31.764Z,8.70
2018-11-07T00:57:59.602Z,8.70
2018-11-07T01:00:27.332Z,8.70
2018-11-07T01:02:55.036Z,8.80
2018-11-07T01:05:22.838Z,8.70
2018-11-07T01:07:50.595Z,8.70
2018-11-07T01:10:18.341Z,8.70
2018-11-07T01:12:45.992Z,8.70
2018-11-07T01:15:13.960Z,8.70
2018-11-07T01:17:41.619Z,8.70
2018-11-07T01:20:10.924Z,8.70
2018-11-07T01:22:38.660Z,8.60
2018-11-07T01:25:07.095Z,8.70
2018-11-07T01:27:34.785Z,8.60
2018-11-07T01:30:02.680Z,8.50
2018-11-07T01:32:30.382Z,8.50
2018-11-07T01:34:58.069Z,8.50
2018-11-07T01:37:25.795Z,8.50
2018-11-07T01:39:53.496Z,8.40
2018-11-07T01:42:21.168Z,8.40
2018-11-07T01:44:48.944Z,8.40
2018-11-07T01:47:16.589Z,8.30
2018-11-07T01:49:47.916Z,8.30
2018-11-07T01:52:15.676Z,8.30
2018-11-07T01:54:43.415Z,8.30
2018-11-07T01:57:11.181Z,8.30
2018-11-07T01:59:38.877Z,8.30
2018-11-07T02:02:06.587Z,8.30
2018-11-07T02:04:34.400Z,8.30
2018-11-07T02:07:02.089Z,8.20
2018-11-07T02:09:29.700Z,8.20
2018-11-07T02:11:57.364Z,8.20
2018-11-07T02:14:25.100Z,8.20
2018-11-07T02:16:52.779Z,8.10
2018-11-07T02:19:20.499Z,8.00
2018-11-07T02:21:48.130Z,8.00
2018-11-07T02:24:15.828Z,8.00
2018-11-07T02:26:43.541Z,7.90
2018-11-07T02:29:14.116Z,7.90
2018-11-07T02:31:43.548Z,7.90
2018-11-07T02:34:11.535Z,7.80
2018-11-07T02:36:39.180Z,7.80
2018-11-07T02:39:09.431Z,7.70
2018-11-07T02:41:37.273Z,7.60
2018-11-07T02:44:05.232Z,7.50
2018-11-07T02:46:33.167Z,7.50
2018-11-07T02:49:01.296Z,7.40
2018-11-07T02:51:29.040Z,7.30
2018-11-07T02:53:56.957Z,7.30
2018-11-07T02:56:27.816Z,7.20
2018-11-07T02:58:55.612Z,7.20
2018-11-07T03:01:27.829Z,7.10
2018-11-07T03:03:55.524Z,7.10
2018-11-07T03:06:23.232Z,7.10
2018-11-07T03:08:50.868Z,7.00
2018-11-07T03:11:18.604Z,6.90
2018-11-07T03:13:46.268Z,6.90
2018-11-07T03:16:13.914Z,6.90
2018-11-07T03:18:41.605Z,6.90
2018-11-07T03:21:09.386Z,6.90
2018-11-07T03:23:37.044Z,6.90
2018-11-07T03:26:04.840Z,6.80
2018-11-07T03:28:32.609Z,6.70
2018-11-07T03:31:00.281Z,6.70
2018-11-07T03:33:28.016Z,6.70
2018-11-07T03:35:55.705Z,6.60
2018-11-07T03:38:23.432Z,6.60
2018-11-07T03:40:51.147Z,6.50
2018-11-07T03:43:22.288Z,6.40
2018-11-07T03:45:55.564Z,6.40
2018-11-07T03:48:23.284Z,6.40
2018-11-07T03:50:50.911Z,6.30
2018-11-07T03:53:18.639Z,6.30
2018-11-07T03:55:46.368Z,6.20
2018-11-07T03:58:13.982Z,6.20
2018-11-07T04:00:41.685Z,6.10
2018-11-07T04:03:09.375Z,6.00
2018-11-07T04:05:37.032Z,6.00
2018-11-07T04:08:05.068Z,5.90
2018-11-07T04:10:32.759Z,5.90
2018-11-07T04:13:00.508Z,5.80
2018-11-07T04:15:31.880Z,5.80
2018-11-07T04:17:59.566Z,5.70
2018-11-07T04:20:27.260Z,5.60
2018-11-07T04:22:59.375Z,5.60
2018-11-07T04:25:27.132Z,5.60
2018-11-07T04:27:54.768Z,5.60
2018-11-07T04:30:28.391Z,5.60
2018-11-07T04:32:56.098Z,5.50
2018-11-07T04:35:23.700Z,5.40
2018-11-07T04:37:51.400Z,5.40
2018-11-07T04:40:19.044Z,5.40
2018-11-07T04:42:46.803Z,5.40
2018-11-07T04:45:14.436Z,5.30
2018-11-07T04:47:42.124Z,5.30
2018-11-07T04:50:10.778Z,5.30
2018-11-07T04:52:38.920Z,5.30
2018-11-07T04:55:06.689Z,5.20
2018-11-07T04:57:34.472Z,5.20
2018-11-07T05:00:02.228Z,5.10
2018-11-07T05:02:29.927Z,5.10
2018-11-07T05:04:58.612Z,5.10
2018-11-07T05:07:30.148Z,5.00
2018-11-07T05:09:57.826Z,5.00
2018-11-07T05:12:25.968Z,4.90
2018-11-07T05:14:53.668Z,4.90
2018-11-07T05:17:21.398Z,4.80
2018-11-07T05:19:49.135Z,4.80
2018-11-07T05:22:16.732Z,4.80
2018-11-07T05:24:44.548Z,4.80
2018-11-07T05:27:12.304Z,4.70
2018-11-07T05:29:43.721Z,4.70
2018-11-07T05:32:11.432Z,4.70
2018-11-07T05:34:39.095Z,4.70
2018-11-07T05:37:06.788Z,4.70
2018-11-07T05:39:34.496Z,4.60
2018-11-07T05:42:02.344Z,4.60
2018-11-07T05:44:30.096Z,4.60
2018-11-07T05:46:57.722Z,4.50
2018-11-07T05:49:25.424Z,4.60
2018-11-07T05:51:53.112Z,4.60
2018-11-07T05:54:24.180Z,4.50
2018-11-07T05:56:51.824Z,4.50
2018-11-07T05:59:19.577Z,4.50
2018-11-07T06:01:47.303Z,4.50
2018-11-07T06:04:15.036Z,4.50
2018-11-07T06:06:43.608Z,4.50
2018-11-07T06:09:11.288Z,4.40
2018-11-07T06:11:38.949Z,4.50
2018-11-07T06:14:06.947Z,4.50
2018-11-07T06:16:34.947Z,4.50
2018-11-07T06:19:02.844Z,4.50
2018-11-07T06:21:30.567Z,4.50
2018-11-07T06:23:58.336Z,4.50
2018-11-07T06:26:26.044Z,4.50
2018-11-07T06:28:53.768Z,4.40
2018-11-07T06:31:25.212Z,4.50
2018-11-07T06:33:53.018Z,4.50
2018-11-07T06:36:24.020Z,4.50
2018-11-07T06:38:51.732Z,4.50
2018-11-07T06:41:19.428Z,4.50
2018-11-07T06:43:47.156Z,4.50
2018-11-07T06:46:14.893Z,4.50
2018-11-07T06:48:42.576Z,4.50
2018-11-07T06:51:10.316Z,4.50
2018-11-07T06:53:38.044Z,4.50
2018-11-07T06:56:05.716Z,4.50
2018-11-07T06:58:33.407Z,4.60
2018-11-07T07:01:01.293Z,4.60
2018-11-07T07:03:29.020Z,4.60
2018-11-07T07:05:56.932Z,4.60
2018-11-07T07:08:24.859Z,4.70
2018-11-07T07:10:52.906Z,4.70
2018-11-07T07:13:20.403Z,4.60
2018-11-07T07:15:47.938Z,4.60
2018-11-07T07:18:15.439Z,4.70
2018-11-07T07:20:42.787Z,4.70
2018-11-07T07:23:10.187Z,4.70
2018-11-07T07:25:37.657Z,4.80
2018-11-07T07:28:05.131Z,4.80
2018-11-07T07:30:32.604Z,4.80
2018-11-07T07:33:00.029Z,4.90
2018-11-07T07:35:27.387Z,5.00
2018-11-07T07:37:54.783Z,5.10
2018-11-07T07:40:22.187Z,5.20
2018-11-07T07:42:49.604Z,5.30
2018-11-07T07:45:18.151Z,5.30
2018-11-07T07:47:45.914Z,5.40
2018-11-07T07:50:14.499Z,5.40
2018-11-07T07:52:42.557Z,5.50
2018-11-07T07:55:10.225Z,5.50
2018-11-07T07:57:38.411Z,5.60
2018-11-07T08:00:11.207Z,5.70
2018-11-07T08:02:39.420Z,5.70
2018-11-07T08:05:06.835Z,5.90
2018-11-07T08:07:34.231Z,6.00
2018-11-07T08:10:01.770Z,6.10
2018-11-07T08:12:29.159Z,6.30
2018-11-07T08:14:56.559Z,6.40
2018-11-07T08:17:23.983Z,6.50
2018-11-07T08:19:51.387Z,6.70
2018-11-07T08:22:18.778Z,6.80
2018-11-07T08:24:49.679Z,7.00
2018-11-07T08:27:17.086Z,7.20
2018-11-07T08:29:50.863Z,7.30
2018-11-07T08:32:18.283Z,7.50
2018-11-07T08:34:45.696Z,7.60
2018-11-07T08:37:13.152Z,7.70
2018-11-07T08:39:40.615Z,7.80
2018-11-07T08:42:08.063Z,7.90
2018-11-07T08:44:35.419Z,8.00
2018-11-07T08:47:02.855Z,8.10
2018-11-07T08:49:30.276Z,8.20
2018-11-07T08:51:57.684Z,8.30
2018-11-07T08:54:25.077Z,8.40
2018-11-07T08:56:52.491Z,8.50
2018-11-07T08:59:19.915Z,8.60
2018-11-07T09:01:47.331Z,8.70
2018-11-07T09:04:18.386Z,8.70
2018-11-07T09:06:45.798Z,8.80
2018-11-07T09:09:13.213Z,8.80
2018-11-07T09:11:40.607Z,8.90
2018-11-07T09:14:08.130Z,8.90
2018-11-07T09:16:35.614Z,9.00
2018-11-07T09:19:03.023Z,9.10
2018-11-07T09:21:30.452Z,9.20
2018-11-07T09:23:57.879Z,9.20
2018-11-07T09:26:25.288Z,9.20
2018-11-07T09:28:52.923Z,9.30
2018-11-07T09:31:20.335Z,9.30
2018-11-07T09:33:47.795Z,9.30
2018-11-07T09:36:15.215Z,9.40
2018-11-07T09:38:42.627Z,9.40
2018-11-07T09:41:10.027Z,9.50
2018-11-07T09:43:37.446Z,9.50
2018-11-07T09:46:04.919Z,9.60
2018-11-07T09:48:32.312Z,9.60
2018-11-07T09:50:59.763Z,9.70
2018-11-07T09:53:27.177Z,9.70
2018-11-07T09:55:54.598Z,9.80
2018-11-07T09:58:22.007Z,9.80
2018-11-07T10:00:49.422Z,9.90
2018-11-07T10:03:16.835Z,10.00
2018-11-07T10:05:44.236Z,10.10
2018-11-07T10:08:11.635Z,10.10
2018-11-07T10:10:39.086Z,10.10
2018-11-07T10:13:09.968Z,10.10
2018-11-07T10:15:37.371Z,10.20
2018-11-07T10:18:04.859Z,10.20
2018-11-07T10:20:32.306Z,10.20
2018-11-07T10:22:59.703Z,10.30
2018-11-07T10:25:27.146Z,10.30
2018-11-07T10:27:54.892Z,10.40
2018-11-07T10:30:22.195Z,10.40
2018-11-07T10:32:50.075Z,10.50
2018-11-07T10:35:17.506Z,10.50
2018-11-07T10:37:44.924Z,10.50
2018-11-07T10:40:16.555Z,10.60
2018-11-07T10:42:44.505Z,10.60
2018-11-07T10:45:12.194Z,10.60
2018-11-07T10:47:39.835Z,10.60
2018-11-07T10:50:08.719Z,10.60
2018-11-07T10:52:36.171Z,10.70
2018-11-07T10:55:04.076Z,10.80
2018-11-07T10:57:31.487Z,10.80
2018-11-07T10:59:58.923Z,10.80
2018-11-07T11:02:31.923Z,10.90
2018-11-07T11:04:59.381Z,10.90
2018-11-07T11:07:26.771Z,11.00
2018-11-07T11:09:54.194Z,11.00
2018-11-07T11:12:21.695Z,11.00
2018-11-07T11:14:49.115Z,11.00
2018-11-07T11:17:20.072Z,11.00
2018-11-07T11:19:47.424Z,11.00
2018-11-07T11:22:14.820Z,11.10
2018-11-07T11:24:42.232Z,11.10
2018-11-07T11:27:09.661Z,11.30
2018-11-07T11:29:37.062Z,11.40
2018-11-07T11:32:04.875Z,11.40
2018-11-07T11:34:32.406Z,11.40
2018-11-07T11:36:59.695Z,11.50
2018-11-07T11:39:27.107Z,11.50
2018-11-07T11:41:54.510Z,11.60
2018-11-07T11:44:21.895Z,11.60
2018-11-07T11:46:49.660Z,11.60
2018-11-07T11:49:17.112Z,11.60
2018-11-07T11:51:44.506Z,11.70
2018-11-07T11:54:11.903Z,11.80
2018-11-07T11:56:39.307Z,11.90
2018-11-07T11:59:06.842Z,12.00
2018-11-07T12:01:34.163Z,12.00
2018-11-07T12:04:01.576Z,12.10
2018-11-07T12:06:29.017Z,12.10
2018-11-07T12:08:56.539Z,12.20
2018-11-07T12:11:23.871Z,12.20
2018-11-07T12:13:51.300Z,12.20
2018-11-07T12:16:22.235Z,12.30
2018-11-07T12:18:49.671Z,12.30
2018-11-07T12:21:17.156Z,12.30
2018-11-07T12:23:44.552Z,12.20
2018-11-07T12:26:15.151Z,12.20
2018-11-07T12:28:42.560Z,12.20
2018-11-07T12:31:09.957Z,12.20
2018-11-07T12:33:37.379Z,12.30
2018-11-07T12:36:04.883Z,12.30
2018-11-07T12:38:36.099Z,12.30
2018-11-07T12:41:03.580Z,12.30
2018-11-07T12:43:30.979Z,12.40
2018-11-07T12:45:58.394Z,12.40
2018-11-07T12:48:25.819Z,12.40
2018-11-07T12:50:53.231Z,12.40
2018-11-07T12:53:20.642Z,12.60
2018-11-07T12:55:48.046Z,12.80
2018-11-07T12:58:15.643Z,12.80
2018-11-07T13:00:42.855Z,12.80
2018-11-07T13:03:10.284Z,12.90
2018-11-07T13:05:37.699Z,13.10
2018-11-07T13:08:05.219Z,13.10
2018-11-07T13:10:32.628Z,13.10
2018-11-07T13:13:00.023Z,13.10
2018-11-07T13:15:27.436Z,13.10
2018-11-07T13:17:54.854Z,13.20
2018-11-07T13:20:23.651Z,13.40
2018-11-07T13:22:52.145Z,13.30
2018-11-07T13:25:19.992Z,13.20
2018-11-07T13:27:47.407Z,13.20
2018-11-07T13:30:15.999Z,13.10
2018-11-07T13:32:43.399Z,13.10
2018-11-07T13:35:12.692Z,13.10
2018-11-07T13:37:40.974Z,13.10
2018-11-07T13:40:14.664Z,13.10
2018-11-07T13:42:42.091Z,13.20
2018-11-07T13:45:11.236Z,13.20
2018-11-07T13:47:39.494Z,13.20
2018-11-07T13:50:07.031Z,13.30
2018-11-07T13:52:37.871Z,13.30
2018-11-07T13:55:06.505Z,13.50
2018-11-07T13:57:33.949Z,13.50
2018-11-07T14:00:01.605Z,13.60
2018-11-07T14:02:29.056Z,13.60
2018-11-07T14:05:02.306Z,13.60
2018-11-07T14:07:29.704Z,13.70
2018-11-07T14:09:57.139Z,13.70
2018-11-07T14:12:24.571Z,13.60
2018-11-07T14:14:52.007Z,13.60
2018-11-07T14:17:19.451Z,13.60
2018-11-07T14:19:46.896Z,13.60
2018-11-07T14:22:14.310Z,13.60
2018-11-07T14:24:41.728Z,13.60
2018-11-07T14:27:09.155Z,13.50
2018-11-07T14:29:36.556Z,13.50
2018-11-07T14:32:04.124Z,13.40
2018-11-07T14:34:31.879Z,13.40
2018-11-07T14:36:59.301Z,13.40
2018-11-07T14:39:26.712Z,13.30
2018-11-07T14:41:54.131Z,13.30
2018-11-07T14:44:21.531Z,13.30
2018-11-07T14:46:48.960Z,13.30
2018-11-07T14:49:16.371Z,13.30
2018-11-07T14:51:43.784Z,13.30
2018-11-07T14:54:11.513Z,13.40
2018-11-07T14:56:38.895Z,13.40
2018-11-07T14:59:06.284Z,13.40
2018-11-07T15:01:33.753Z,13.40
2018-11-07T15:04:01.152Z,13.30
2018-11-07T15:06:28.575Z,13.20
2018-11-07T15:08:56.061Z,13.20
2018-11-07T15:11:23.448Z,13.10
2018-11-07T15:13:50.823Z,13.10
2018-11-07T15:16:18.252Z,13.00
2018-11-07T15:18:45.648Z,13.00
2018-11-07T15:21:13.047Z,13.00
2018-11-07T15:23:40.455Z,12.90
2018-11-07T15:26:07.876Z,12.80
2018-11-07T15:28:35.276Z,12.80
2018-11-07T15:31:02.711Z,12.70
2018-11-07T15:33:30.104Z,12.70
2018-11-07T15:35:57.556Z,12.80
2018-11-07T15:38:24.931Z,12.70
2018-11-07T15:40:52.319Z,12.70
2018-11-07T15:43:19.786Z,12.60
2018-11-07T15:45:47.191Z,12.50
2018-11-07T15:48:14.593Z,12.40
2018-11-07T15:50:47.587Z,12.30
2018-11-07T15:53:15.047Z,12.30
2018-11-07T15:55:42.459Z,12.30
2018-11-07T15:58:09.891Z,12.30
2018-11-07T16:00:37.298Z,12.20
2018-11-07T16:03:06.716Z,12.10
2018-11-07T16:05:34.134Z,12.10
2018-11-07T16:08:01.543Z,12.00
2018-11-07T16:10:30.924Z,12.00
2018-11-07T16:12:58.600Z,11.90
2018-11-07T16:15:26.177Z,11.90
2018-11-07T16:17:53.626Z,11.80
2018-11-07T16:20:21.042Z,11.80
2018-11-07T16:22:49.026Z,11.80
2018-11-07T16:25:16.482Z,11.80
2018-11-07T16:27:44.247Z,11.80
2018-11-07T16:30:13.136Z,11.80
2018-11-07T16:32:40.579Z,11.80
2018-11-07T16:35:08.779Z,11.90
2018-11-07T16:37:36.279Z,11.90
2018-11-07T16:40:04.979Z,12.00
2018-11-07T16:42:32.408Z,12.00
2018-11-07T16:44:59.788Z,12.10
2018-11-07T16:47:27.217Z,12.10
2018-11-07T16:49:54.615Z,12.10
2018-11-07T16:52:22.068Z,12.10
2018-11-07T16:54:52.800Z,12.10
2018-11-07T16:57:20.211Z,12.10
2018-11-07T16:59:47.607Z,12.10
2018-11-07T17:02:15.011Z,12.10
2018-11-07T17:04:42.481Z,12.10
2018-11-07T17:07:09.924Z,12.10
2018-11-07T17:09:37.271Z,12.10
2018-11-07T17:12:05.172Z,12.10
2018-11-07T17:14:32.583Z,12.10
2018-11-07T17:16:59.967Z,12.10
2018-11-07T17:19:27.374Z,12.00
2018-11-07T17:21:54.795Z,12.00
2018-11-07T17:24:22.344Z,12.00
2018-11-07T17:26:49.609Z,12.00
2018-11-07T17:29:17.011Z,12.00
2018-11-07T17:31:44.446Z,12.00
2018-11-07T17:34:11.818Z,12.00
2018-11-07T17:36:39.231Z,12.00
2018-11-07T17:39:07.227Z,12.00
2018-11-07T17:41:34.623Z,12.00
2018-11-07T17:44:05.280Z,12.00
2018-11-07T17:46:32.687Z,12.00
2018-11-07T17:49:00.120Z,12.00
2018-11-07T17:51:27.531Z,12.00
2018-11-07T17:53:54.960Z,11.90
2018-11-07T17:56:22.887Z,12.00
2018-11-07T17:58:50.315Z,11.90
2018-11-07T18:01:17.715Z,11.90
2018-11-07T18:03:45.206Z,11.90
2018-11-07T18:06:12.579Z,11.90
2018-11-07T18:08:40.002Z,11.90
2018-11-07T18:11:07.427Z,11.90
2018-11-07T18:13:34.912Z,11.80
2018-11-07T18:16:02.286Z,11.80
2018-11-07T18:18:32.875Z,11.80
2018-11-07T18:21:00.295Z,11.80
2018-11-07T18:23:27.691Z,11.80
2018-11-07T18:25:55.104Z,11.80
2018-11-07T18:28:22.579Z,11.70
2018-11-07T18:30:50.028Z,11.80
2018-11-07T18:33:17.445Z,11.80
2018-11-07T18:35:44.956Z,11.80
2018-11-07T18:38:12.336Z,11.80
2018-11-07T18:40:39.754Z,11.70
2018-11-07T18:43:07.257Z,11.70
2018-11-07T18:45:34.652Z,11.70
2018-11-07T18:48:02.103Z,11.70
2018-11-07T18:50:29.559Z,11.70
2018-11-07T18:52:57.021Z,11.70
2018-11-07T18:55:24.408Z,11.70
2018-11-07T18:57:51.860Z,11.70
2018-11-07T19:00:19.973Z,11.70
2018-11-07T19:02:48.156Z,11.70
2018-11-07T19:05:15.782Z,11.60
2018-11-07T19:07:44.331Z,11.60
2018-11-07T19:10:14.824Z,11.60
2018-11-07T19:12:42.493Z,11.70
2018-11-07T19:15:11.491Z,11.60
2018-11-07T19:17:40.166Z,11.60
2018-11-07T19:20:08.801Z,11.60
2018-11-07T19:22:36.294Z,11.60
2018-11-07T19:25:04.441Z,11.60
2018-11-07T19:27:31.894Z,11.60
2018-11-07T19:29:59.735Z,11.60
2018-11-07T19:32:27.811Z,11.60
2018-11-07T19:34:55.953Z,11.60
2018-11-07T19:37:24.018Z,11.50
2018-11-07T19:39:52.927Z,11.50
2018-11-07T19:42:21.564Z,11.50
2018-11-07T19:44:50.778Z,11.50
2018-11-07T19:47:20.366Z,11.50
2018-11-07T19:49:49.781Z,11.50
2018-11-07T19:52:19.441Z,11.50
2018-11-07T19:54:49.363Z,11.50
2018-11-07T19:57:19.248Z,11.50
2018-11-07T19:59:48.887Z,11.40
2018-11-07T20:02:18.628Z,11.40
2018-11-07T20:04:48.497Z,11.40
2018-11-07T20:07:18.292Z,11.40
2018-11-07T20:09:48.335Z,11.40
2018-11-07T20:12:17.925Z,11.40
2018-11-07T20:14:47.652Z,11.40
2018-11-07T20:17:17.553Z,11.40
2018-11-07T20:19:47.523Z,11.30
2018-11-07T20:22:17.387Z,11.30
2018-11-07T20:24:47.352Z,11.30
2018-11-07T20:27:17.364Z,11.30
2018-11-07T20:29:47.236Z,11.30
2018-11-07T20:32:20.799Z,11.30
2018-11-07T20:34:50.603Z,11.30
2018-11-07T20:37:20.546Z,11.30
2018-11-07T20:39:50.438Z,11.30
2018-11-07T20:42:20.335Z,11.30
2018-11-07T20:44:50.264Z,11.30
2018-11-07T20:47:20.036Z,11.30
2018-11-07T20:49:49.449Z,11.30
2018-11-07T20:52:18.580Z,11.20
2018-11-07T20:54:47.817Z,11.20
2018-11-07T20:57:18.207Z,11.20
2018-11-07T20:59:46.687Z,11.20
2018-11-07T21:02:15.053Z,11.30
2018-11-07T21:04:43.350Z,11.20
2018-11-07T21:07:12.305Z,11.20
2018-11-07T21:09:40.212Z,11.20
2018-11-07T21:12:09.655Z,11.20
2018-11-07T21:14:37.572Z,11.20
2018-11-07T21:17:06.422Z,11.20
2018-11-07T21:19:34.353Z,11.20
2018-11-07T21:22:02.104Z,11.20
2018-11-07T21:24:29.813Z,11.20
2018-11-07T21:26:57.661Z,11.20
2018-11-07T21:29:25.464Z,11.20
2018-11-07T21:31:53.192Z,11.20
2018-11-07T21:34:20.889Z,11.20
2018-11-07T21:36:48.635Z,11.20
2018-11-07T21:39:16.371Z,11.10
2018-11-07T21:41:48.352Z,11.10
2018-11-07T21:44:16.241Z,11.10
2018-11-07T21:46:43.973Z,11.10
2018-11-07T21:49:11.782Z,11.10
2018-11-07T21:51:39.588Z,11.10
2018-11-07T21:54:07.944Z,11.10
2018-11-07T21:56:35.664Z,11.10
2018-11-07T21:59:04.413Z,11.20
2018-11-07T22:01:32.091Z,11.20
2018-11-07T22:03:59.812Z,11.20
2018-11-07T22:06:27.572Z,11.20
2018-11-07T22:08:55.191Z,11.20
2018-11-07T22:11:22.955Z,11.20
2018-11-07T22:13:50.704Z,11.20
2018-11-07T22:16:20.536Z,11.20
2018-11-07T22:18:48.248Z,11.20
2018-11-07T22:21:15.976Z,11.20
2018-11-07T22:23:43.664Z,11.20
2018-11-07T22:26:11.406Z,11.20
2018-11-07T22:28:39.172Z,11.20
2018-11-07T22:31:06.944Z,11.20
2018-11-07T22:33:34.612Z,11.20
2018-11-07T22:36:02.351Z,11.10
2018-11-07T22:38:33.372Z,11.10
2018-11-07T22:41:01.173Z,11.10
2018-11-07T22:43:28.953Z,11.10
2018-11-07T22:45:56.684Z,11.00
2018-11-07T22:48:24.401Z,11.00
2018-11-07T22:50:52.120Z,11.00
2018-11-07T22:53:19.808Z,11.00
2018-11-07T22:55:47.955Z,11.00
2018-11-07T22:58:18.865Z,11.00
2018-11-07T23:00:52.024Z,11.00
2018-11-07T23:03:19.484Z,11.00
2018-11-07T23:05:46.895Z,11.00
2018-11-07T23:08:14.314Z,11.00
2018-11-07T23:10:41.756Z,11.10
2018-11-07T23:13:09.160Z,11.00
2018-11-07T23:15:42.269Z,11.00
2018-11-07T23:18:09.682Z,11.00
2018-11-07T23:20:37.084Z,11.00
2018-11-07T23:23:04.692Z,11.00
2018-11-07T23:25:32.095Z,11.00
2018-11-07T23:27:59.491Z,11.00
2018-11-07T23:30:26.883Z,11.10
2018-11-07T23:32:54.306Z,11.10
2018-11-07T23:35:21.715Z,11.10
2018-11-07T23:37:49.107Z,11.10
2018-11-07T23:40:16.527Z,11.00
2018-11-07T23:42:43.931Z,11.00
2018-11-07T23:45:11.327Z,11.00
2018-11-07T23:47:38.751Z,11.00
2018-11-07T23:50:06.835Z,11.00
2018-11-07T23:52:39.948Z,11.00
2018-11-07T23:55:07.406Z,10.90
2018-11-07T23:57:34.799Z,10.90
